createdAt,value
2023-02-19T00:01:25.318Z,100868.81
2023-02-19T00:03:54.803Z,100866.41
2023-02-19T00:06:24.043Z,100861.03
2023-02-19T00:08:51.007Z,100852.22
2023-02-19T00:11:20.442Z,100856.72
2023-02-19T00:13:49.610Z,100864.81
2023-02-19T00:16:33.501Z,100861.41
2023-02-19T00:19:01.971Z,100852.94
2023-02-19T00:21:29.821Z,100846.78
2023-02-19T00:23:59.423Z,100841.88
2023-02-19T00:26:26.409Z,100835.47
2023-02-19T00:28:54.493Z,100835.28
2023-02-19T00:31:24.051Z,100844.09
2023-02-19T00:33:53.351Z,100844.78
2023-02-19T00:36:20.756Z,100839.63
2023-02-19T00:38:48.185Z,100835.97
2023-02-19T00:41:19.159Z,100825.56
2023-02-19T00:43:48.809Z,100830.13
2023-02-19T00:46:19.203Z,100834.84
2023-02-19T00:48:46.140Z,100842.81
2023-02-19T00:51:13.118Z,100829.56
2023-02-19T00:53:39.999Z,100829.22
2023-02-19T00:56:06.955Z,100827.16
2023-02-19T00:58:33.703Z,100829.03
2023-02-19T01:01:00.650Z,100826.53
2023-02-19T01:03:27.462Z,100825.91
2023-02-19T01:05:54.646Z,100822.47
2023-02-19T01:08:21.910Z,100819.78
2023-02-19T01:10:48.958Z,100822.41
2023-02-19T01:13:15.835Z,100818.06
2023-02-19T01:15:42.483Z,100816.91
2023-02-19T01:18:09.283Z,100824.00
2023-02-19T01:20:39.437Z,100820.03
2023-02-19T01:23:06.292Z,100830.06
2023-02-19T01:25:32.886Z,100822.34
2023-02-19T01:27:59.454Z,100825.63
2023-02-19T01:30:26.302Z,100824.94
2023-02-19T01:32:52.901Z,100825.97
2023-02-19T01:35:19.602Z,100820.88
2023-02-19T01:37:46.194Z,100825.16
2023-02-19T01:40:12.775Z,100825.88
2023-02-19T01:42:43.909Z,100819.00
2023-02-19T01:45:34.085Z,100833.78
2023-02-19T01:48:23.056Z,100824.19
2023-02-19T01:51:00.248Z,100821.56
2023-02-19T01:53:32.119Z,100830.34
2023-02-19T01:56:00.498Z,100825.13
2023-02-19T01:58:32.125Z,100822.69
2023-02-19T02:01:03.004Z,100826.59
2023-02-19T02:03:30.923Z,100824.31
2023-02-19T02:06:19.217Z,100833.00
2023-02-19T02:09:04.631Z,100824.47
2023-02-19T02:11:31.393Z,100832.13
2023-02-19T02:13:58.790Z,100829.72
2023-02-19T02:16:30.337Z,100829.53
2023-02-19T02:19:20.931Z,100818.03
2023-02-19T02:21:47.450Z,100822.56
2023-02-19T02:24:51.763Z,100816.50
2023-02-19T02:27:37.117Z,100822.16
2023-02-19T02:30:18.128Z,100814.81
2023-02-19T02:33:23.771Z,100822.78
2023-02-19T02:35:54.956Z,100811.84
2023-02-19T02:38:25.445Z,100817.34
2023-02-19T02:40:54.514Z,100814.53
2023-02-19T02:43:21.763Z,100828.75
2023-02-19T02:45:48.746Z,100823.38
2023-02-19T02:48:45.161Z,100820.38
2023-02-19T02:51:20.113Z,100820.53
2023-02-19T02:54:37.104Z,100821.72
2023-02-19T02:57:14.683Z,100820.75
2023-02-19T02:59:49.205Z,100816.94
2023-02-19T03:02:31.363Z,100809.41
2023-02-19T03:05:41.597Z,100812.94
2023-02-19T03:08:37.905Z,100814.56
2023-02-19T03:11:26.593Z,100810.63
2023-02-19T03:14:39.724Z,100815.44
2023-02-19T03:17:40.629Z,100814.34
2023-02-19T03:20:13.055Z,100814.28
2023-02-19T03:22:42.096Z,100822.75
2023-02-19T03:25:38.494Z,100824.63
2023-02-19T03:28:09.553Z,100824.63
2023-02-19T03:30:40.813Z,100829.13
2023-02-19T03:33:18.778Z,100840.72
2023-02-19T03:35:50.885Z,100834.09
2023-02-19T03:38:23.386Z,100846.00
2023-02-19T03:41:10.622Z,100842.63
2023-02-19T03:44:12.854Z,100840.34
2023-02-19T03:47:08.308Z,100843.19
2023-02-19T03:49:49.219Z,100854.81
2023-02-19T03:52:47.071Z,100859.88
2023-02-19T03:55:35.681Z,100861.53
2023-02-19T03:58:13.264Z,100873.28
2023-02-19T04:00:49.197Z,100871.91
2023-02-19T04:03:37.238Z,100870.38
2023-02-19T04:06:11.589Z,100869.91
2023-02-19T04:08:40.844Z,100869.63
2023-02-19T04:11:09.764Z,100867.59
2023-02-19T04:13:50.932Z,100873.91
2023-02-19T04:16:24.223Z,100877.75
2023-02-19T04:18:54.563Z,100883.59
2023-02-19T04:21:22.985Z,100885.38
2023-02-19T04:23:50.158Z,100887.59
2023-02-19T04:26:20.077Z,100902.75
2023-02-19T04:28:47.120Z,100896.22
2023-02-19T04:31:14.435Z,100898.44
2023-02-19T04:33:41.342Z,100907.63
2023-02-19T04:36:10.890Z,100907.59
2023-02-19T04:38:40.331Z,100917.34
2023-02-19T04:41:06.959Z,100912.84
2023-02-19T04:43:33.608Z,100914.69
2023-02-19T04:46:01.754Z,100919.28
2023-02-19T04:48:28.887Z,100921.50
2023-02-19T04:50:55.700Z,100935.38
2023-02-19T04:53:22.285Z,100932.25
2023-02-19T04:55:48.985Z,100933.09
2023-02-19T04:58:15.519Z,100945.72
2023-02-19T05:00:42.090Z,100945.88
2023-02-19T05:03:08.662Z,100948.53
2023-02-19T05:05:35.223Z,100949.69
2023-02-19T05:08:01.788Z,100953.03
2023-02-19T05:10:28.394Z,100957.50
2023-02-19T05:12:57.802Z,100963.25
2023-02-19T05:15:24.411Z,100959.97
2023-02-19T05:17:50.998Z,100959.25
2023-02-19T05:20:17.698Z,100971.44
2023-02-19T05:22:44.237Z,100968.09
2023-02-19T05:25:10.856Z,100969.28
2023-02-19T05:27:37.546Z,100973.47
2023-02-19T05:30:04.432Z,100982.19
2023-02-19T05:32:31.014Z,100979.88
2023-02-19T05:34:57.667Z,100976.84
2023-02-19T05:37:24.300Z,100988.59
2023-02-19T05:39:50.895Z,101004.91
2023-02-19T05:42:17.492Z,100990.00
2023-02-19T05:44:44.118Z,100984.75
2023-02-19T05:47:10.778Z,100990.19
2023-02-19T05:49:37.566Z,101006.81
2023-02-19T05:52:04.399Z,101008.34
2023-02-19T05:54:31.997Z,101011.56
2023-02-19T05:56:58.568Z,101017.19
2023-02-19T05:59:26.416Z,101025.97
2023-02-19T06:01:54.705Z,101034.88
2023-02-19T06:04:21.567Z,101033.50
2023-02-19T06:06:48.654Z,101037.41
2023-02-19T06:09:15.264Z,101032.06
2023-02-19T06:11:43.306Z,101044.25
2023-02-19T06:14:12.908Z,101041.28
2023-02-19T06:16:39.376Z,101051.66
2023-02-19T06:19:06.055Z,101046.16
2023-02-19T06:21:32.707Z,101055.69
2023-02-19T06:23:59.332Z,101053.72
2023-02-19T06:26:26.257Z,101052.41
2023-02-19T06:28:54.541Z,101064.34
2023-02-19T06:31:23.108Z,101066.91
2023-02-19T06:33:50.784Z,101067.00
2023-02-19T06:36:19.803Z,101065.16
2023-02-19T06:38:46.507Z,101074.34
2023-02-19T06:41:14.225Z,101073.84
2023-02-19T06:43:41.552Z,101076.53
2023-02-19T06:46:08.289Z,101077.03
2023-02-19T06:48:35.693Z,101090.66
2023-02-19T06:51:02.548Z,101085.06
2023-02-19T06:53:29.366Z,101102.84
2023-02-19T06:55:57.836Z,101096.03
2023-02-19T06:58:24.499Z,101100.25
2023-02-19T07:00:51.199Z,101106.50
2023-02-19T07:03:17.865Z,101108.41
2023-02-19T07:05:44.516Z,101129.53
2023-02-19T07:08:11.240Z,101132.69
2023-02-19T07:10:37.812Z,101131.59
2023-02-19T07:13:04.684Z,101127.06
2023-02-19T07:15:31.315Z,101155.75
2023-02-19T07:17:59.294Z,101178.19
2023-02-19T07:20:26.069Z,101175.06
2023-02-19T07:22:52.594Z,101205.72
2023-02-19T07:25:19.197Z,101218.84
2023-02-19T07:27:45.752Z,101218.47
2023-02-19T07:30:12.882Z,101230.50
2023-02-19T07:32:42.887Z,101241.06
2023-02-19T07:35:09.819Z,101238.59
2023-02-19T07:37:36.610Z,101247.81
2023-02-19T07:40:03.611Z,101246.31
2023-02-19T07:42:30.294Z,101259.03
2023-02-19T07:44:58.438Z,101267.53
2023-02-19T07:47:26.844Z,101277.16
2023-02-19T07:49:53.405Z,101266.31
2023-02-19T07:52:19.937Z,101277.88
2023-02-19T07:54:46.555Z,101279.63
2023-02-19T07:57:13.791Z,101276.97
2023-02-19T07:59:40.544Z,101281.22
2023-02-19T08:02:39.232Z,101279.00
2023-02-19T08:05:06.766Z,101283.84
2023-02-19T08:07:35.234Z,101298.56
2023-02-19T08:10:21.469Z,101297.63
2023-02-19T08:13:17.827Z,101305.88
2023-02-19T08:15:44.937Z,101321.69
2023-02-19T08:18:12.329Z,101317.22
2023-02-19T08:20:39.047Z,101318.78
2023-02-19T08:23:06.854Z,101310.06
2023-02-19T08:25:33.674Z,101322.59
2023-02-19T08:28:01.011Z,101334.03
2023-02-19T08:30:29.467Z,101331.91
2023-02-19T08:32:56.423Z,101344.97
2023-02-19T08:35:23.091Z,101348.03
2023-02-19T08:37:49.697Z,101341.16
2023-02-19T08:40:16.715Z,101343.69
2023-02-19T08:42:43.375Z,101347.31
2023-02-19T08:45:10.269Z,101357.00
2023-02-19T08:47:37.236Z,101365.50
2023-02-19T08:50:05.529Z,101372.38
2023-02-19T08:52:32.434Z,101384.50
2023-02-19T08:54:59.402Z,101385.13
2023-02-19T08:57:26.604Z,101386.06
2023-02-19T08:59:53.280Z,101390.28
2023-02-19T09:02:19.887Z,101391.72
2023-02-19T09:04:46.487Z,101392.16
2023-02-19T09:07:13.439Z,101397.34
2023-02-19T09:09:40.556Z,101404.13
2023-02-19T09:12:12.369Z,101399.03
2023-02-19T09:14:39.156Z,101395.06
2023-02-19T09:17:07.091Z,101408.41
2023-02-19T09:19:34.516Z,101411.06
2023-02-19T09:22:01.175Z,101422.16
2023-02-19T09:24:27.722Z,101425.91
2023-02-19T09:26:55.183Z,101423.22
2023-02-19T09:29:24.553Z,101426.78
2023-02-19T09:31:51.216Z,101418.53
2023-02-19T09:34:17.813Z,101428.28
2023-02-19T09:36:44.361Z,101435.16
2023-02-19T09:39:12.571Z,101442.50
2023-02-19T09:41:52.525Z,101449.38
2023-02-19T09:44:34.378Z,101455.72
2023-02-19T09:47:01.819Z,101463.59
2023-02-19T09:49:33.751Z,101470.53
2023-02-19T09:52:14.563Z,101489.38
2023-02-19T09:54:42.446Z,101494.69
2023-02-19T09:57:15.513Z,101496.44
2023-02-19T09:59:45.720Z,101505.81
2023-02-19T10:02:16.650Z,101519.22
2023-02-19T10:04:45.795Z,101529.44
2023-02-19T10:07:15.052Z,101529.25
2023-02-19T10:09:42.037Z,101534.88
2023-02-19T10:12:15.979Z,101531.28
2023-02-19T10:14:48.111Z,101543.13
2023-02-19T10:17:23.829Z,101561.63
2023-02-19T10:19:52.326Z,101558.88
2023-02-19T10:22:19.919Z,101563.91
2023-02-19T10:24:51.941Z,101557.38
2023-02-19T10:27:19.203Z,101565.66
2023-02-19T10:29:48.923Z,101560.69
2023-02-19T10:32:20.931Z,101572.78
2023-02-19T10:34:47.784Z,101580.63
2023-02-19T10:37:17.347Z,101591.00
2023-02-19T10:39:43.857Z,101585.16
2023-02-19T10:42:19.369Z,101585.81
2023-02-19T10:44:51.398Z,101586.78
2023-02-19T10:47:22.297Z,101583.41
2023-02-19T10:49:50.923Z,101586.72
2023-02-19T10:52:36.733Z,101591.31
2023-02-19T10:55:23.253Z,101594.75
2023-02-19T10:57:50.508Z,101596.13
2023-02-19T11:00:35.830Z,101598.59
2023-02-19T11:03:24.267Z,101602.56
2023-02-19T11:06:03.631Z,101612.28
2023-02-19T11:08:34.182Z,101611.94
2023-02-19T11:11:00.795Z,101609.81
2023-02-19T11:13:37.953Z,101621.41
2023-02-19T11:16:05.410Z,101628.69
2023-02-19T11:18:33.365Z,101624.63
2023-02-19T11:21:06.180Z,101624.31
2023-02-19T11:23:35.700Z,101630.38
2023-02-19T11:26:06.509Z,101611.56
2023-02-19T11:28:38.135Z,101614.56
2023-02-19T11:31:28.301Z,101616.53
2023-02-19T11:34:21.098Z,101615.50
2023-02-19T11:37:07.711Z,101613.41
2023-02-19T11:39:34.711Z,101613.63
2023-02-19T11:42:21.621Z,101606.69
2023-02-19T11:45:09.742Z,101603.09
2023-02-19T11:48:20.780Z,101601.19
2023-02-19T11:51:05.074Z,101605.59
2023-02-19T11:53:34.595Z,101603.09
2023-02-19T11:56:10.266Z,101605.31
2023-02-19T11:58:55.401Z,101603.78
2023-02-19T12:01:29.454Z,101601.00
2023-02-19T12:04:26.932Z,101598.00
2023-02-19T12:07:12.169Z,101596.47
2023-02-19T12:10:09.506Z,101602.94
2023-02-19T12:13:07.364Z,101604.22
2023-02-19T12:16:03.986Z,101606.66
2023-02-19T12:18:54.812Z,101613.16
2023-02-19T12:22:04.330Z,101614.41
2023-02-19T12:24:49.307Z,101615.47
2023-02-19T12:27:21.620Z,101610.88
2023-02-19T12:29:51.276Z,101618.38
2023-02-19T12:32:23.834Z,101623.75
2023-02-19T12:35:28.136Z,101635.34
2023-02-19T12:38:03.819Z,101634.34
2023-02-19T12:40:43.304Z,101628.50
2023-02-19T12:43:13.845Z,101624.72
2023-02-19T12:45:43.134Z,101630.28
2023-02-19T12:48:14.870Z,101633.22
2023-02-19T12:50:43.821Z,101640.63
2023-02-19T12:53:43.689Z,101641.91
2023-02-19T12:56:34.400Z,101650.47
2023-02-19T12:59:07.208Z,101655.97
2023-02-19T13:01:44.050Z,101659.25
2023-02-19T13:04:26.017Z,101647.81
2023-02-19T13:07:09.120Z,101645.25
2023-02-19T13:09:48.971Z,101652.22
2023-02-19T13:12:23.597Z,101654.47
2023-02-19T13:15:16.184Z,101653.81
2023-02-19T13:17:50.475Z,101646.78
2023-02-19T13:20:36.831Z,101635.72
2023-02-19T13:23:41.053Z,101638.94
2023-02-19T13:26:26.406Z,101638.72
2023-02-19T13:28:59.450Z,101648.78
2023-02-19T13:31:53.544Z,101651.06
2023-02-19T13:34:41.400Z,101660.19
2023-02-19T13:37:09.662Z,101652.09
2023-02-19T13:39:36.407Z,101651.91
2023-02-19T13:42:04.095Z,101654.59
2023-02-19T13:44:34.332Z,101660.44
2023-02-19T13:47:01.050Z,101672.56
2023-02-19T13:49:27.545Z,101673.16
2023-02-19T13:52:24.398Z,101661.50
2023-02-19T13:54:51.338Z,101662.47
2023-02-19T13:57:17.841Z,101672.81
2023-02-19T13:59:45.274Z,101665.31
2023-02-19T14:02:22.970Z,101657.97
2023-02-19T14:05:04.853Z,101658.66
2023-02-19T14:07:51.730Z,101665.28
2023-02-19T14:10:46.079Z,101675.06
2023-02-19T14:13:32.562Z,101670.34
2023-02-19T14:15:59.550Z,101678.28
2023-02-19T14:18:44.641Z,101684.91
2023-02-19T14:21:26.568Z,101684.72
2023-02-19T14:23:56.230Z,101684.72
2023-02-19T14:26:25.231Z,101692.19
2023-02-19T14:28:53.652Z,101707.63
2023-02-19T14:31:31.185Z,101713.72
2023-02-19T14:34:19.614Z,101701.63
2023-02-19T14:36:52.484Z,101705.38
2023-02-19T14:39:40.333Z,101709.56
2023-02-19T14:42:14.202Z,101711.19
2023-02-19T14:44:48.555Z,101716.84
2023-02-19T14:47:19.101Z,101714.81
2023-02-19T14:50:08.937Z,101709.25
2023-02-19T14:52:45.746Z,101702.34
2023-02-19T14:55:32.512Z,101700.81
2023-02-19T14:58:01.764Z,101696.97
2023-02-19T15:00:30.701Z,101682.81
2023-02-19T15:02:59.754Z,101674.84
2023-02-19T15:05:29.514Z,101672.84
2023-02-19T15:08:02.000Z,101670.13
2023-02-19T15:10:32.197Z,101665.78
2023-02-19T15:13:08.248Z,101657.59
2023-02-19T15:15:40.721Z,101656.19
2023-02-19T15:18:13.950Z,101657.69
2023-02-19T15:20:42.475Z,101649.56
2023-02-19T15:23:12.231Z,101643.22
2023-02-19T15:25:39.532Z,101641.28
2023-02-19T15:28:24.231Z,101628.75
2023-02-19T15:31:05.592Z,101649.25
2023-02-19T15:33:32.477Z,101635.34
2023-02-19T15:36:06.614Z,101643.47
2023-02-19T15:38:34.064Z,101634.09
2023-02-19T15:41:01.337Z,101634.78
2023-02-19T15:43:30.615Z,101639.31
2023-02-19T15:46:07.184Z,101638.13
2023-02-19T15:48:43.014Z,101643.25
2023-02-19T15:51:19.103Z,101647.47
2023-02-19T15:53:51.244Z,101655.09
2023-02-19T15:56:28.355Z,101652.13
2023-02-19T15:59:00.243Z,101651.34
2023-02-19T16:01:33.235Z,101653.31
2023-02-19T16:04:00.444Z,101662.38
2023-02-19T16:06:28.142Z,101674.97
2023-02-19T16:09:01.889Z,101673.38
2023-02-19T16:11:30.354Z,101668.38
2023-02-19T16:14:16.802Z,101686.94
2023-02-19T16:16:46.151Z,101682.38
2023-02-19T16:19:13.181Z,101687.19
2023-02-19T16:21:43.802Z,101690.75
2023-02-19T16:24:25.883Z,101690.91
2023-02-19T16:26:52.710Z,101691.66
2023-02-19T16:29:20.731Z,101700.13
2023-02-19T16:32:16.957Z,101700.25
2023-02-19T16:34:51.627Z,101705.88
2023-02-19T16:37:41.207Z,101705.59
2023-02-19T16:40:07.759Z,101712.06
2023-02-19T16:42:36.004Z,101705.66
2023-02-19T16:45:02.941Z,101708.38
2023-02-19T16:47:37.152Z,101707.84
2023-02-19T16:50:12.703Z,101715.75
2023-02-19T16:52:57.810Z,101719.13
2023-02-19T16:55:25.207Z,101718.34
2023-02-19T16:57:52.051Z,101721.81
2023-02-19T17:00:26.889Z,101729.19
2023-02-19T17:02:59.639Z,101732.50
2023-02-19T17:05:29.100Z,101737.16
2023-02-19T17:07:55.796Z,101737.50
2023-02-19T17:10:25.722Z,101738.47
2023-02-19T17:12:55.367Z,101735.72
2023-02-19T17:15:22.130Z,101738.72
2023-02-19T17:17:49.460Z,101735.94
2023-02-19T17:20:16.086Z,101748.34
2023-02-19T17:22:43.208Z,101758.31
2023-02-19T17:25:10.312Z,101749.22
2023-02-19T17:27:37.124Z,101750.13
2023-02-19T17:30:09.924Z,101750.84
2023-02-19T17:32:36.626Z,101748.25
2023-02-19T17:35:03.406Z,101751.34
2023-02-19T17:37:30.023Z,101758.41
2023-02-19T17:39:56.615Z,101763.03
2023-02-19T17:42:23.860Z,101757.53
2023-02-19T17:44:51.882Z,101765.09
2023-02-19T17:47:18.739Z,101766.44
2023-02-19T17:49:45.466Z,101755.91
2023-02-19T17:52:13.651Z,101746.09
2023-02-19T17:54:40.256Z,101762.00
2023-02-19T17:57:06.879Z,101759.78
2023-02-19T17:59:33.492Z,101758.03
2023-02-19T18:02:00.100Z,101749.38
2023-02-19T18:04:26.803Z,101746.97
2023-02-19T18:06:54.374Z,101749.44
2023-02-19T18:09:22.361Z,101740.00
2023-02-19T18:11:49.334Z,101752.09
2023-02-19T18:14:16.072Z,101753.50
2023-02-19T18:16:50.620Z,101752.78
2023-02-19T18:19:17.711Z,101750.94
2023-02-19T18:21:44.252Z,101750.38
2023-02-19T18:24:10.952Z,101752.63
2023-02-19T18:26:37.894Z,101765.44
2023-02-19T18:29:05.484Z,101770.38
2023-02-19T18:31:37.509Z,101773.56
2023-02-19T18:34:05.171Z,101788.69
2023-02-19T18:36:32.821Z,101787.53
2023-02-19T18:38:59.482Z,101785.38
2023-02-19T18:41:26.137Z,101788.97
2023-02-19T18:43:52.715Z,101796.34
2023-02-19T18:46:21.200Z,101782.88
2023-02-19T18:48:47.936Z,101790.59
2023-02-19T18:51:14.588Z,101788.50
2023-02-19T18:53:42.994Z,101784.66
2023-02-19T18:56:09.708Z,101781.53
2023-02-19T18:58:36.329Z,101787.69
2023-02-19T19:01:03.166Z,101799.41
2023-02-19T19:03:30.996Z,101797.69
2023-02-19T19:05:58.545Z,101801.22
2023-02-19T19:08:25.325Z,101797.91
2023-02-19T19:10:51.916Z,101798.22
2023-02-19T19:13:18.569Z,101801.88
2023-02-19T19:15:50.243Z,101785.78
2023-02-19T19:18:16.921Z,101794.72
2023-02-19T19:20:43.508Z,101798.34
2023-02-19T19:23:10.068Z,101802.84
2023-02-19T19:25:37.420Z,101795.91
2023-02-19T19:28:04.199Z,101792.28
2023-02-19T19:30:30.953Z,101801.88
2023-02-19T19:32:58.022Z,101809.09
2023-02-19T19:35:24.656Z,101805.16
2023-02-19T19:37:51.452Z,101803.97
2023-02-19T19:40:18.742Z,101803.09
2023-02-19T19:42:46.055Z,101799.56
2023-02-19T19:45:15.659Z,101784.75
2023-02-19T19:47:42.536Z,101793.22
2023-02-19T19:50:15.684Z,101802.22
2023-02-19T19:52:42.349Z,101800.31
2023-02-19T19:55:11.944Z,101793.09
2023-02-19T19:57:40.748Z,101807.66
2023-02-19T20:00:09.052Z,101801.75
2023-02-19T20:02:46.170Z,101814.00
2023-02-19T20:05:13.994Z,101823.53
2023-02-19T20:07:40.589Z,101826.19
2023-02-19T20:10:08.180Z,101825.94
2023-02-19T20:12:34.734Z,101829.25
2023-02-19T20:15:01.513Z,101836.03
2023-02-19T20:17:28.888Z,101838.91
2023-02-19T20:19:55.618Z,101839.47
2023-02-19T20:22:22.265Z,101842.22
2023-02-19T20:24:53.307Z,101850.44
2023-02-19T20:27:21.830Z,101843.69
2023-02-19T20:29:48.819Z,101839.81
2023-02-19T20:32:18.503Z,101841.78
2023-02-19T20:34:45.979Z,101829.94
2023-02-19T20:37:12.717Z,101830.16
2023-02-19T20:39:39.329Z,101825.44
2023-02-19T20:42:06.724Z,101817.44
2023-02-19T20:44:34.107Z,101825.38
2023-02-19T20:47:01.517Z,101828.19
2023-02-19T20:49:31.029Z,101817.28
2023-02-19T20:52:04.922Z,101819.25
2023-02-19T20:54:34.873Z,101810.31
2023-02-19T20:57:04.285Z,101801.56
2023-02-19T20:59:35.225Z,101805.41
2023-02-19T21:02:07.118Z,101807.16
2023-02-19T21:04:38.509Z,101795.34
2023-02-19T21:07:05.180Z,101802.25
2023-02-19T21:09:32.160Z,101810.88
2023-02-19T21:11:59.970Z,101816.06
2023-02-19T21:14:26.746Z,101823.78
2023-02-19T21:16:53.743Z,101829.66
2023-02-19T21:19:21.697Z,101823.28
2023-02-19T21:21:48.406Z,101832.25
2023-02-19T21:24:15.673Z,101841.03
2023-02-19T21:26:43.574Z,101840.56
2023-02-19T21:29:15.829Z,101847.53
2023-02-19T21:31:44.903Z,101851.31
2023-02-19T21:34:13.668Z,101855.69
2023-02-19T21:36:40.641Z,101848.19
2023-02-19T21:39:09.490Z,101844.97
2023-02-19T21:41:36.614Z,101847.78
2023-02-19T21:44:03.964Z,101850.22
2023-02-19T21:46:32.843Z,101851.56
2023-02-19T21:49:00.026Z,101844.22
2023-02-19T21:51:36.168Z,101829.63
2023-02-19T21:54:04.256Z,101815.69
2023-02-19T21:56:35.868Z,101810.41
2023-02-19T21:59:03.467Z,101813.66
2023-02-19T22:01:33.808Z,101815.13
2023-02-19T22:04:00.510Z,101817.81
2023-02-19T22:06:29.347Z,101820.66
2023-02-19T22:08:56.585Z,101825.38
2023-02-19T22:11:23.248Z,101817.81
2023-02-19T22:13:50.607Z,101817.75
2023-02-19T22:16:18.147Z,101817.66
2023-02-19T22:18:54.068Z,101816.03
2023-02-19T22:21:21.860Z,101820.47
2023-02-19T22:23:50.630Z,101809.78
2023-02-19T22:26:26.982Z,101816.03
2023-02-19T22:28:55.258Z,101812.88
2023-02-19T22:31:24.360Z,101802.13
2023-02-19T22:33:51.827Z,101800.78
2023-02-19T22:36:21.600Z,101801.72
2023-02-19T22:38:49.225Z,101808.75
2023-02-19T22:41:17.679Z,101813.44
2023-02-19T22:43:45.102Z,101809.72
2023-02-19T22:46:18.672Z,101811.47
2023-02-19T22:48:46.168Z,101811.69
2023-02-19T22:51:16.583Z,101812.31
2023-02-19T22:53:47.989Z,101812.72
2023-02-19T22:56:16.162Z,101818.28
2023-02-19T22:58:43.531Z,101825.28
2023-02-19T23:01:12.391Z,101815.53
2023-02-19T23:03:53.527Z,101820.06
2023-02-19T23:06:26.119Z,101826.59
2023-02-19T23:08:55.248Z,101827.81
2023-02-19T23:11:24.327Z,101831.59
2023-02-19T23:13:51.017Z,101836.75
2023-02-19T23:16:17.723Z,101836.28
2023-02-19T23:18:44.792Z,101839.69
2023-02-19T23:21:11.747Z,101832.56
2023-02-19T23:23:43.947Z,101829.06
2023-02-19T23:26:10.879Z,101828.34
2023-02-19T23:28:39.623Z,101839.72
2023-02-19T23:31:06.765Z,101831.06
2023-02-19T23:33:33.559Z,101828.47
2023-02-19T23:36:00.125Z,101826.31
2023-02-19T23:38:26.781Z,101828.94
2023-02-19T23:40:53.403Z,101817.69
2023-02-19T23:43:21.057Z,101823.88
2023-02-19T23:45:47.624Z,101816.38
2023-02-19T23:48:14.210Z,101823.44
2023-02-19T23:50:40.799Z,101811.34
2023-02-19T23:53:07.608Z,101819.03
2023-02-19T23:55:34.216Z,101820.34
2023-02-19T23:58:00.859Z,101811.78
